createdAt,value
2019-04-01T00:01:34.906Z,40.73
2019-04-01T00:04:36.969Z,39.20
2019-04-01T00:07:38.868Z,37.27
2019-04-01T00:10:40.782Z,37.20
2019-04-01T00:13:44.506Z,29.63
2019-04-01T00:16:46.419Z,21.03
2019-04-01T00:19:48.347Z,17.63
2019-04-01T00:22:50.445Z,15.43
2019-04-01T00:25:52.423Z,13.03
2019-04-01T00:28:54.333Z,13.33
2019-04-01T00:31:56.224Z,27.93
2019-04-01T00:34:58.189Z,19.77
2019-04-01T00:38:00.120Z,36.53
2019-04-01T00:41:02.127Z,21.13
2019-04-01T00:44:08.629Z,26.17
2019-04-01T00:47:10.588Z,11.00
2019-04-01T00:50:12.466Z,15.43
2019-04-01T00:53:17.795Z,23.80
2019-04-01T00:56:18.139Z,22.93
2019-04-01T00:59:20.070Z,18.63
2019-04-01T01:02:21.927Z,18.93
2019-04-01T01:05:23.967Z,28.97
2019-04-01T01:08:25.930Z,48.60
2019-04-01T01:11:28.215Z,30.03
2019-04-01T01:14:30.121Z,29.80
2019-04-01T01:17:32.023Z,45.47
2019-04-01T01:20:34.030Z,29.03
2019-04-01T01:23:35.867Z,26.50
2019-04-01T01:26:38.762Z,18.07
2019-04-01T01:29:40.649Z,24.40
2019-04-01T01:32:42.512Z,17.93
2019-04-01T01:35:44.423Z,13.90
2019-04-01T01:38:46.307Z,13.00
2019-04-01T01:41:48.187Z,13.33
2019-04-01T01:44:50.035Z,11.63
2019-04-01T01:47:51.935Z,8.07
2019-04-01T01:50:54.043Z,10.63
2019-04-01T01:53:55.949Z,10.57
2019-04-01T01:56:57.822Z,17.10
2019-04-01T01:59:59.790Z,9.50
2019-04-01T02:03:01.652Z,13.00
2019-04-01T02:06:03.620Z,14.17
2019-04-01T02:09:06.822Z,12.13
2019-04-01T02:12:09.218Z,15.23
2019-04-01T02:15:11.124Z,17.87
2019-04-01T02:18:13.032Z,16.20
2019-04-01T02:21:14.932Z,10.57
2019-04-01T02:24:16.836Z,12.37
2019-04-01T02:27:18.708Z,13.03
2019-04-01T02:30:20.562Z,13.67
2019-04-01T02:33:22.407Z,12.97
2019-04-01T02:36:24.304Z,11.23
2019-04-01T02:39:26.309Z,16.23
2019-04-01T02:42:28.222Z,13.23
2019-04-01T02:45:30.148Z,17.53
2019-04-01T02:48:32.076Z,15.60
2019-04-01T02:51:34.038Z,16.40
2019-04-01T02:54:35.918Z,20.20
2019-04-01T02:57:37.850Z,12.57
2019-04-01T03:00:39.715Z,19.00
2019-04-01T03:03:41.628Z,17.60
2019-04-01T03:06:43.539Z,18.90
2019-04-01T03:09:45.542Z,16.77
2019-04-01T03:12:47.725Z,16.53
2019-04-01T03:15:49.773Z,14.87
2019-04-01T03:18:51.671Z,13.47
2019-04-01T03:21:53.547Z,11.10
2019-04-01T03:24:55.399Z,13.03
2019-04-01T03:27:57.297Z,15.60
2019-04-01T03:30:59.144Z,15.20
2019-04-01T03:34:01.075Z,8.10
2019-04-01T03:37:03.001Z,15.67
2019-04-01T03:40:05.485Z,19.53
2019-04-01T03:43:07.492Z,18.17
2019-04-01T03:46:09.402Z,13.27
2019-04-01T03:49:11.276Z,16.77
2019-04-01T03:52:13.229Z,14.90
2019-04-01T03:55:16.084Z,16.93
2019-04-01T03:58:17.991Z,15.70
2019-04-01T04:01:19.871Z,30.30
2019-04-01T04:04:21.812Z,34.40
2019-04-01T04:07:23.776Z,40.17
2019-04-01T04:10:25.820Z,54.70
2019-04-01T04:13:27.857Z,32.03
2019-04-01T04:16:29.816Z,53.17
2019-04-01T04:19:31.660Z,61.80
2019-04-01T04:22:33.627Z,66.33
2019-04-01T04:25:35.509Z,41.70
2019-04-01T04:28:37.499Z,38.60
2019-04-01T04:31:40.390Z,31.17
2019-04-01T04:34:42.353Z,71.43
2019-04-01T04:37:44.396Z,79.53
2019-04-01T04:40:46.354Z,95.57
2019-04-01T04:43:48.341Z,111.87
2019-04-01T04:46:50.264Z,94.30
2019-04-01T04:49:52.186Z,83.33
2019-04-01T04:52:54.180Z,59.47
2019-04-01T04:55:56.104Z,63.47
2019-04-01T04:58:59.378Z,41.37
2019-04-01T05:02:01.465Z,50.97
2019-04-01T05:05:05.441Z,43.73
2019-04-01T05:08:07.441Z,30.50
2019-04-01T05:11:09.425Z,34.30
2019-04-01T05:14:11.660Z,32.00
2019-04-01T05:17:13.679Z,23.70
2019-04-01T05:20:16.624Z,27.40
2019-04-01T05:23:20.463Z,21.50
2019-04-01T05:26:24.153Z,19.13
2019-04-01T05:29:29.562Z,13.33
2019-04-01T05:32:33.293Z,17.13
2019-04-01T05:35:35.472Z,20.17
2019-04-01T05:38:37.515Z,14.80
2019-04-01T05:41:39.514Z,18.57
2019-04-01T05:44:41.557Z,11.70
2019-04-01T05:47:45.340Z,16.43
2019-04-01T05:50:47.305Z,12.50
2019-04-01T05:53:49.310Z,13.83
2019-04-01T05:56:51.438Z,16.40
2019-04-01T05:59:53.443Z,21.73
2019-04-01T06:02:55.384Z,21.00
2019-04-01T06:05:58.189Z,18.40
2019-04-01T06:09:00.131Z,19.60
2019-04-01T06:12:02.249Z,21.00
2019-04-01T06:15:05.338Z,18.23
2019-04-01T06:18:07.306Z,18.13
2019-04-01T06:21:10.129Z,19.13
2019-04-01T06:24:12.590Z,15.73
2019-04-01T06:27:15.005Z,15.33
2019-04-01T06:30:17.785Z,17.80
2019-04-01T06:33:19.746Z,17.50
2019-04-01T06:36:21.842Z,18.63
2019-04-01T06:39:23.798Z,16.00
2019-04-01T06:42:25.787Z,18.43
2019-04-01T06:45:27.839Z,18.67
2019-04-01T06:48:30.578Z,19.03
2019-04-01T06:51:32.884Z,17.83
2019-04-01T06:54:34.925Z,20.47
2019-04-01T06:57:36.789Z,15.43
2019-04-01T07:00:38.842Z,17.53
2019-04-01T07:03:40.856Z,14.10
2019-04-01T07:06:43.654Z,17.80
2019-04-01T07:09:45.590Z,21.67
2019-04-01T07:12:49.499Z,12.53
2019-04-01T07:15:51.475Z,13.10
2019-04-01T07:18:53.468Z,16.80
2019-04-01T07:21:55.590Z,14.60
2019-04-01T07:24:57.544Z,19.27
2019-04-01T07:27:59.511Z,10.97
2019-04-01T07:31:01.716Z,14.47
2019-04-01T07:34:03.734Z,17.17
2019-04-01T07:37:06.005Z,12.37
2019-04-01T07:40:08.449Z,9.90
2019-04-01T07:43:10.472Z,17.63
2019-04-01T07:46:12.466Z,10.93
2019-04-01T07:49:14.938Z,10.83
2019-04-01T07:52:17.002Z,7.83
2019-04-01T07:55:18.915Z,8.07
2019-04-01T07:58:20.886Z,8.93
2019-04-01T08:01:22.825Z,10.00
2019-04-01T08:04:24.764Z,10.13
2019-04-01T08:07:26.800Z,6.33
2019-04-01T08:10:28.768Z,6.40
2019-04-01T08:13:30.756Z,7.50
2019-04-01T08:16:32.792Z,8.90
2019-04-01T08:19:34.691Z,5.13
2019-04-01T08:22:36.857Z,5.83
2019-04-01T08:25:38.750Z,11.13
2019-04-01T08:28:41.885Z,7.27
2019-04-01T08:31:43.796Z,4.00
2019-04-01T08:34:46.979Z,8.53
2019-04-01T08:37:49.245Z,3.70
2019-04-01T08:40:51.234Z,5.63
2019-04-01T08:43:53.163Z,7.60
2019-04-01T08:46:55.082Z,6.43
2019-04-01T08:49:57.032Z,6.37
2019-04-01T08:52:59.115Z,8.67
2019-04-01T08:56:02.146Z,7.57
2019-04-01T08:59:04.200Z,6.00
2019-04-01T09:02:17.041Z,6.97
2019-04-01T09:05:10.121Z,11.17
2019-04-01T09:08:12.085Z,7.07
2019-04-01T09:11:15.593Z,6.43
2019-04-01T09:14:17.784Z,7.10
2019-04-01T09:17:19.879Z,4.97
2019-04-01T09:20:21.857Z,7.80
2019-04-01T09:23:24.036Z,6.90
2019-04-01T09:26:25.955Z,8.60
2019-04-01T09:29:28.042Z,7.90
2019-04-01T09:32:30.002Z,12.60
2019-04-01T09:35:31.991Z,4.67
2019-04-01T09:38:34.091Z,7.40
2019-04-01T09:41:36.124Z,6.63
2019-04-01T09:44:38.075Z,4.13
2019-04-01T09:47:40.031Z,3.53
2019-04-01T09:50:41.984Z,5.83
2019-04-01T09:53:44.104Z,5.57
2019-04-01T09:56:46.089Z,3.93
2019-04-01T09:59:48.077Z,6.20
2019-04-01T10:02:50.029Z,5.47
2019-04-01T10:05:51.996Z,4.23
2019-04-01T10:08:53.993Z,3.70
2019-04-01T10:11:55.947Z,5.53
2019-04-01T10:14:57.957Z,4.07
2019-04-01T10:17:59.981Z,3.57
2019-04-01T10:21:01.900Z,3.40
2019-04-01T10:24:03.988Z,4.27
2019-04-01T10:27:07.595Z,2.60
2019-04-01T10:30:11.320Z,6.57
2019-04-01T10:33:13.378Z,3.90
2019-04-01T10:36:15.437Z,2.00
2019-04-01T10:39:17.396Z,9.33
2019-04-01T10:42:19.380Z,2.47
2019-04-01T10:45:21.426Z,2.37
2019-04-01T10:48:23.365Z,3.83
2019-04-01T10:51:25.504Z,4.03
2019-04-01T10:54:27.532Z,2.00
2019-04-01T10:57:29.565Z,2.67
2019-04-01T11:00:31.622Z,3.20
2019-04-01T11:03:34.794Z,3.57
2019-04-01T11:06:37.916Z,2.67
2019-04-01T11:09:39.881Z,3.17
2019-04-01T11:12:41.821Z,4.53
2019-04-01T11:15:43.828Z,2.63
2019-04-01T11:18:45.784Z,1.53
2019-04-01T11:21:47.713Z,4.53
2019-04-01T11:24:49.872Z,2.93
2019-04-01T11:27:59.033Z,2.57
2019-04-01T11:31:01.067Z,3.60
2019-04-01T11:34:03.256Z,2.43
2019-04-01T11:37:05.325Z,3.50
2019-04-01T11:40:11.262Z,4.90
2019-04-01T11:43:12.478Z,6.03
2019-04-01T11:46:14.512Z,3.03
2019-04-01T11:49:16.569Z,3.53
2019-04-01T11:52:18.507Z,4.93
2019-04-01T11:55:20.667Z,5.10
2019-04-01T11:58:22.580Z,3.77
2019-04-01T12:01:24.583Z,6.30
2019-04-01T12:04:26.598Z,4.73
2019-04-01T12:07:28.560Z,3.67
2019-04-01T12:10:30.560Z,4.47
2019-04-01T12:13:32.557Z,3.93
2019-04-01T12:16:34.519Z,7.63
2019-04-01T12:19:36.576Z,4.27
2019-04-01T12:22:38.558Z,5.50
2019-04-01T12:25:40.787Z,5.47
2019-04-01T12:28:43.623Z,4.97
2019-04-01T12:31:46.050Z,8.20
2019-04-01T12:34:48.076Z,5.13
2019-04-01T12:37:50.083Z,2.17
2019-04-01T12:40:52.051Z,4.37
2019-04-01T12:43:54.075Z,5.20
2019-04-01T12:46:56.035Z,6.67
2019-04-01T12:49:58.084Z,2.97
2019-04-01T12:53:00.068Z,4.30
2019-04-01T12:56:02.103Z,3.80
2019-04-01T12:59:04.035Z,9.73
2019-04-01T13:02:06.042Z,3.00
2019-04-01T13:05:09.267Z,11.37
2019-04-01T13:08:11.450Z,5.63
2019-04-01T13:11:13.476Z,3.90
2019-04-01T13:14:15.522Z,6.70
2019-04-01T13:17:17.444Z,2.53
2019-04-01T13:20:19.409Z,4.27
2019-04-01T13:23:21.412Z,8.27
2019-04-01T13:26:26.327Z,45.43
2019-04-01T13:29:28.884Z,4.37
2019-04-01T13:32:30.891Z,16.00
2019-04-01T13:35:32.873Z,5.70
2019-04-01T13:38:34.883Z,3.87
2019-04-01T13:41:42.515Z,5.33
2019-04-01T13:44:40.765Z,3.40
2019-04-01T13:47:42.760Z,6.90
2019-04-01T13:50:44.767Z,2.30
2019-04-01T13:53:46.680Z,2.67
2019-04-01T13:56:48.739Z,41.60
2019-04-01T13:59:52.166Z,2.47
2019-04-01T14:02:54.198Z,18.57
2019-04-01T14:05:56.197Z,6.70
2019-04-01T14:09:00.449Z,4.93
2019-04-01T14:12:02.053Z,2.97
2019-04-01T14:15:06.693Z,3.03
2019-04-01T14:18:08.629Z,3.10
2019-04-01T14:21:16.621Z,4.20
2019-04-01T14:24:15.242Z,3.40
2019-04-01T14:27:18.402Z,3.77
2019-04-01T14:30:21.006Z,4.30
2019-04-01T14:33:22.918Z,11.60
2019-04-01T14:36:24.878Z,4.87
2019-04-01T14:39:26.907Z,2.77
2019-04-01T14:42:28.907Z,7.93
2019-04-01T14:45:30.925Z,7.70
2019-04-01T14:48:32.899Z,12.77
2019-04-01T14:51:34.990Z,7.03
2019-04-01T14:54:37.314Z,5.87
2019-04-01T14:57:39.447Z,6.70
2019-04-01T15:00:41.390Z,4.73
2019-04-01T15:03:43.404Z,7.03
2019-04-01T15:06:45.550Z,4.23
2019-04-01T15:09:47.641Z,6.43
2019-04-01T15:13:04.084Z,3.93
2019-04-01T15:15:53.490Z,4.33
2019-04-01T15:18:55.418Z,2.27
2019-04-01T15:21:57.524Z,3.93
2019-04-01T15:24:59.524Z,3.10
2019-04-01T15:28:02.461Z,3.10
2019-04-01T15:31:05.040Z,4.93
2019-04-01T15:34:09.283Z,19.37
2019-04-01T15:37:11.770Z,6.77
2019-04-01T15:40:13.824Z,16.47
2019-04-01T15:43:15.764Z,4.67
2019-04-01T15:46:19.027Z,5.50
2019-04-01T15:49:21.002Z,3.93
2019-04-01T15:52:23.002Z,8.50
2019-04-01T15:55:24.944Z,9.67
2019-04-01T15:58:27.037Z,4.57
2019-04-01T16:01:30.107Z,3.07
2019-04-01T16:04:32.398Z,3.83
2019-04-01T16:07:34.339Z,5.00
2019-04-01T16:10:36.289Z,3.80
2019-04-01T16:13:38.191Z,3.60
2019-04-01T16:16:40.116Z,4.00
2019-04-01T16:19:43.242Z,3.33
2019-04-01T16:22:46.504Z,4.93
2019-04-01T16:25:48.790Z,3.90
2019-04-01T16:28:50.937Z,5.00
2019-04-01T16:31:55.400Z,3.03
2019-04-01T16:34:57.221Z,5.33
2019-04-01T16:37:59.573Z,4.50
2019-04-01T16:41:04.012Z,7.77
2019-04-01T16:44:05.986Z,6.03
2019-04-01T16:47:08.106Z,5.63
2019-04-01T16:50:10.394Z,4.93
2019-04-01T16:53:23.218Z,5.17
2019-04-01T16:56:27.080Z,7.00
2019-04-01T16:59:29.148Z,6.83
2019-04-01T17:02:32.876Z,8.03
2019-04-01T17:05:34.993Z,9.73
2019-04-01T17:08:36.902Z,6.97
2019-04-01T17:11:42.837Z,5.50
2019-04-01T17:14:45.894Z,11.60
2019-04-01T17:17:48.424Z,7.43
2019-04-01T17:20:50.446Z,7.60
2019-04-01T17:23:52.436Z,8.10
2019-04-01T17:27:06.858Z,11.17
2019-04-01T17:30:10.874Z,12.87
2019-04-01T17:33:14.117Z,12.27
2019-04-01T17:36:16.904Z,13.00
2019-04-01T17:39:18.862Z,12.20
2019-04-01T17:42:21.160Z,12.87
2019-04-01T17:45:26.686Z,10.53
2019-04-01T17:48:33.136Z,11.37
2019-04-01T17:51:35.192Z,13.73
2019-04-01T17:54:39.906Z,11.20
2019-04-01T17:57:41.013Z,11.30
2019-04-01T18:00:48.168Z,10.13
2019-04-01T18:03:50.192Z,13.40
2019-04-01T18:06:52.168Z,8.93
2019-04-01T18:09:54.570Z,15.50
2019-04-01T18:12:57.111Z,12.07
2019-04-01T18:15:59.438Z,15.83
2019-04-01T18:19:01.351Z,32.57
2019-04-01T18:22:04.016Z,20.50
2019-04-01T18:25:08.090Z,19.67
2019-04-01T18:28:10.120Z,21.67
2019-04-01T18:31:12.246Z,20.40
2019-04-01T18:34:14.314Z,22.57
2019-04-01T18:37:16.723Z,23.10
2019-04-01T18:40:31.979Z,25.03
2019-04-01T18:43:23.368Z,24.97
2019-04-01T18:46:25.536Z,26.93
2019-04-01T18:49:29.348Z,23.43
2019-04-01T18:52:31.311Z,15.23
2019-04-01T18:55:33.491Z,20.87
2019-04-01T18:58:36.127Z,18.07
2019-04-01T19:01:39.550Z,20.40
2019-04-01T19:04:44.785Z,22.43
2019-04-01T19:07:46.747Z,21.70
2019-04-01T19:11:01.470Z,17.67
2019-04-01T19:13:52.602Z,30.00
2019-04-01T19:16:58.878Z,27.27
2019-04-01T19:20:03.041Z,25.10
2019-04-01T19:23:04.997Z,26.63
2019-04-01T19:26:09.984Z,28.50
2019-04-01T19:29:11.246Z,28.50
2019-04-01T19:32:14.832Z,19.87
2019-04-01T19:35:17.401Z,22.90
2019-04-01T19:38:25.228Z,23.87
2019-04-01T19:41:29.113Z,20.10
2019-04-01T19:44:31.132Z,31.47
2019-04-01T19:47:33.189Z,21.30
2019-04-01T19:50:36.744Z,22.40
2019-04-01T19:53:39.207Z,21.63
2019-04-01T19:56:41.444Z,27.20
2019-04-01T19:59:47.497Z,23.33
2019-04-01T20:02:52.807Z,25.80
2019-04-01T20:05:54.843Z,23.00
2019-04-01T20:08:59.222Z,20.37
2019-04-01T20:12:01.370Z,21.07
2019-04-01T20:15:11.950Z,16.37
2019-04-01T20:18:16.555Z,22.77
2019-04-01T20:21:18.592Z,15.77
2019-04-01T20:24:20.643Z,20.70
2019-04-01T20:27:25.094Z,24.17
2019-04-01T20:30:26.999Z,19.13
2019-04-01T20:33:31.706Z,22.53
2019-04-01T20:36:33.461Z,19.43
2019-04-01T20:39:35.395Z,17.30
2019-04-01T20:42:37.381Z,15.03
2019-04-01T20:45:39.311Z,18.57
2019-04-01T20:48:41.273Z,17.37
2019-04-01T20:51:43.277Z,17.70
2019-04-01T20:54:45.630Z,13.73
2019-04-01T20:57:47.566Z,12.50
2019-04-01T21:00:49.534Z,12.73
2019-04-01T21:03:51.572Z,16.40
2019-04-01T21:06:53.548Z,15.80
2019-04-01T21:09:55.530Z,11.87
2019-04-01T21:12:57.493Z,11.17
2019-04-01T21:15:59.658Z,18.97
2019-04-01T21:19:01.757Z,16.73
2019-04-01T21:22:05.066Z,19.23
2019-04-01T21:25:07.634Z,10.33
2019-04-01T21:28:09.629Z,13.47
2019-04-01T21:31:12.726Z,18.03
2019-04-01T21:34:16.031Z,16.33
2019-04-01T21:37:18.026Z,14.77
2019-04-01T21:40:19.943Z,9.43
2019-04-01T21:43:21.902Z,12.87
2019-04-01T21:46:23.826Z,16.33
2019-04-01T21:49:25.720Z,17.63
2019-04-01T21:52:27.704Z,14.50
2019-04-01T21:55:30.714Z,10.27
2019-04-01T21:58:32.757Z,11.43
2019-04-01T22:01:34.671Z,15.23
2019-04-01T22:04:36.752Z,11.40
2019-04-01T22:07:38.738Z,12.63
2019-04-01T22:10:40.786Z,9.53
2019-04-01T22:13:42.749Z,12.47
2019-04-01T22:16:45.119Z,11.87
2019-04-01T22:19:47.979Z,14.33
2019-04-01T22:22:49.904Z,12.40
2019-04-01T22:25:51.869Z,14.43
2019-04-01T22:28:53.834Z,14.37
2019-04-01T22:31:55.749Z,13.17
2019-04-01T22:34:57.890Z,14.57
2019-04-01T22:38:03.280Z,15.77
2019-04-01T22:41:04.397Z,10.60
2019-04-01T22:44:06.341Z,14.03
2019-04-01T22:47:08.222Z,14.60
2019-04-01T22:50:10.726Z,13.33
2019-04-01T22:53:12.833Z,13.13
2019-04-01T22:56:14.787Z,13.07
2019-04-01T22:59:16.707Z,16.57
2019-04-01T23:02:18.631Z,12.03
2019-04-01T23:05:20.675Z,16.93
2019-04-01T23:08:22.639Z,14.40
2019-04-01T23:11:25.119Z,14.47
2019-04-01T23:14:27.303Z,11.83
2019-04-01T23:17:29.220Z,16.97
2019-04-01T23:20:31.189Z,10.63
2019-04-01T23:23:34.067Z,10.17
2019-04-01T23:26:35.984Z,9.90
2019-04-01T23:29:37.892Z,11.03
2019-04-01T23:32:41.826Z,13.80
2019-04-01T23:35:43.821Z,9.40
2019-04-01T23:38:45.755Z,14.00
2019-04-01T23:41:47.644Z,12.47
2019-04-01T23:44:52.106Z,12.43
2019-04-01T23:47:54.303Z,11.70
2019-04-01T23:50:56.284Z,10.80
2019-04-01T23:53:58.241Z,11.20
2019-04-01T23:57:00.231Z,14.17
